Time;durP1;ratioP1;P1;durP2;ratioP2;P2;SDS_P1;SDS_P2;PMS_P1;PMS_P2;Temp;Humidity;BMP_temperature;BMP_pressure;BME280_temperature;BME280_humidity;BME280_pressure;Samples;Min_cycle;Max_cycle;Signal;HPM_P1;HPM_P2
2023/05/13 00:01:12;;;;;;;8.20;4.75;;;14.30;99.90;;;;;;5070537;28;20044;-61
2023/05/13 00:03:37;;;;;;;9.73;4.90;;;14.20;99.90;;;;;;5070064;28;20060;-61
2023/05/13 00:06:03;;;;;;;7.38;4.93;;;14.20;99.90;;;;;;5070132;28;20059;-61
2023/05/13 00:08:29;;;;;;;9.50;4.82;;;14.10;99.90;;;;;;5070215;28;20032;-64
2023/05/13 00:10:54;;;;;;;6.95;5.05;;;14.00;99.90;;;;;;5070233;28;20032;-59
2023/05/13 00:13:20;;;;;;;11.35;5.43;;;14.00;99.90;;;;;;5070019;28;20083;-62
2023/05/13 00:15:46;;;;;;;11.88;5.72;;;13.90;99.90;;;;;;5069943;28;20052;-63
2023/05/13 00:18:11;;;;;;;10.75;6.10;;;13.90;99.90;;;;;;5070166;28;20098;-59
2023/05/13 00:20:37;;;;;;;13.02;6.18;;;13.80;99.90;;;;;;5069670;28;20083;-60
2023/05/13 00:23:03;;;;;;;11.80;6.00;;;13.80;99.90;;;;;;5065539;28;20032;-60
2023/05/13 00:25:28;;;;;;;9.00;5.57;;;13.70;99.90;;;;;;5070088;28;20056;-62
2023/05/13 00:27:54;;;;;;;10.68;6.40;;;13.70;99.90;;;;;;5069806;28;20047;-59
2023/05/13 00:30:20;;;;;;;11.00;6.20;;;13.70;99.90;;;;;;5069967;28;20162;-63
2023/05/13 00:32:46;;;;;;;13.65;7.53;;;13.60;99.90;;;;;;5069845;28;20044;-61
2023/05/13 00:35:11;;;;;;;10.63;6.88;;;13.60;99.90;;;;;;5069687;28;20558;-62
2023/05/13 00:37:37;;;;;;;9.35;6.40;;;13.50;99.90;;;;;;5069373;28;20091;-63
2023/05/13 00:40:03;;;;;;;12.70;6.47;;;13.50;99.90;;;;;;5069709;28;20036;-61
2023/05/13 00:42:29;;;;;;;9.65;6.45;;;13.40;99.90;;;;;;5069829;28;20032;-60
2023/05/13 00:44:55;;;;;;;12.80;6.72;;;13.40;99.90;;;;;;5070052;28;20037;-63
2023/05/13 00:47:21;;;;;;;16.92;7.38;;;13.40;99.90;;;;;;5069997;28;20048;-62
2023/05/13 00:49:47;;;;;;;9.82;6.97;;;13.30;99.90;;;;;;5051256;28;20056;-61
2023/05/13 00:52:12;;;;;;;11.88;6.50;;;13.30;99.90;;;;;;5067778;28;20047;-61
2023/05/13 00:54:38;;;;;;;8.38;6.68;;;13.30;99.90;;;;;;5073132;28;20028;-64
2023/05/13 00:57:04;;;;;;;11.75;7.22;;;13.20;99.90;;;;;;5043775;28;20044;-61
2023/05/13 00:59:30;;;;;;;10.50;7.25;;;13.20;99.90;;;;;;5073735;28;20036;-61
2023/05/13 01:01:59;;;;;;;11.10;7.18;;;13.10;99.90;;;;;;5073422;28;20071;-62
2023/05/13 01:05:02;;;;;;;10.07;7.00;;;13.10;99.90;;;;;;5073035;28;20075;-60
2023/05/13 01:07:49;;;;;;;14.70;7.28;;;13.00;99.90;;;;;;5073841;28;20043;-64
2023/05/13 01:10:33;;;;;;;10.65;7.35;;;12.90;99.90;;;;;;5056671;28;20113;-63
2023/05/13 01:13:03;;;;;;;12.33;7.27;;;12.90;99.90;;;;;;5073540;28;20041;-59
2023/05/13 01:15:30;;;;;;;12.68;7.15;;;12.80;99.90;;;;;;5073462;28;20056;-60
2023/05/13 01:18:05;;;;;;;11.02;7.32;;;12.80;99.90;;;;;;5073363;28;20075;-63
2023/05/13 01:20:32;;;;;;;10.38;7.13;;;12.80;99.90;;;;;;5071190;28;20058;-63
2023/05/13 01:22:57;;;;;;;11.25;6.95;;;12.80;99.90;;;;;;5073129;28;20048;-62
2023/05/13 01:25:24;;;;;;;11.80;7.53;;;12.70;99.90;;;;;;5073265;28;20037;-65
2023/05/13 01:27:51;;;;;;;13.57;7.82;;;12.70;99.90;;;;;;5073683;28;20068;-60
2023/05/13 01:30:18;;;;;;;13.82;8.18;;;12.60;99.90;;;;;;5073292;28;20041;-61
2023/05/13 01:32:44;;;;;;;13.45;7.85;;;12.60;99.90;;;;;;5072991;28;20123;-60
2023/05/13 01:35:10;;;;;;;11.98;7.95;;;12.60;99.90;;;;;;5072899;28;20040;-63
2023/05/13 01:37:37;;;;;;;13.38;7.93;;;12.60;99.90;;;;;;5072564;28;20036;-62
2023/05/13 01:40:05;;;;;;;15.43;8.13;;;12.80;99.90;;;;;;5072915;28;20090;-61
2023/05/13 01:42:31;;;;;;;11.13;7.60;;;12.60;99.90;;;;;;5072848;28;20040;-61
2023/05/13 01:44:57;;;;;;;13.18;7.95;;;12.60;99.90;;;;;;5072877;28;20040;-60
2023/05/13 01:47:22;;;;;;;12.52;7.43;;;12.50;99.90;;;;;;5072689;28;20040;-62
2023/05/13 01:49:48;;;;;;;11.90;7.75;;;12.50;99.90;;;;;;5054259;28;20495;-62
2023/05/13 01:52:13;;;;;;;13.30;7.60;;;12.50;99.90;;;;;;5072905;28;20051;-63
2023/05/13 01:54:39;;;;;;;12.88;8.55;;;12.40;99.90;;;;;;5072574;28;20044;-61
2023/05/13 01:57:05;;;;;;;10.90;7.80;;;12.50;99.90;;;;;;5072733;28;20041;-63
2023/05/13 01:59:30;;;;;;;12.27;7.35;;;12.50;99.90;;;;;;5072343;28;20502;-60
2023/05/13 02:01:56;;;;;;;12.77;8.02;;;12.50;99.90;;;;;;5072452;28;20037;-59
2023/05/13 02:04:22;;;;;;;11.77;7.45;;;12.50;99.90;;;;;;5071149;28;20052;-61
2023/05/13 02:06:47;;;;;;;12.73;7.03;;;12.50;99.90;;;;;;5072295;28;20033;-61
2023/05/13 02:09:13;;;;;;;11.23;7.65;;;12.40;99.90;;;;;;5055034;28;20128;-62
2023/05/13 02:11:39;;;;;;;10.63;7.50;;;12.40;99.90;;;;;;5073186;28;20059;-60
2023/05/13 02:14:05;;;;;;;12.80;8.10;;;12.40;99.90;;;;;;5072632;28;20029;-60
2023/05/13 02:16:31;;;;;;;14.63;7.78;;;12.30;99.90;;;;;;5072132;28;20044;-61
2023/05/13 02:18:56;;;;;;;16.63;8.07;;;12.30;99.90;;;;;;5071703;28;20468;-61
2023/05/13 02:21:22;;;;;;;13.02;7.90;;;12.20;99.90;;;;;;5041623;28;20056;-62
2023/05/13 02:23:47;;;;;;;14.93;9.30;;;12.20;99.90;;;;;;5052375;28;20468;-61
2023/05/13 02:26:13;;;;;;;12.88;8.70;;;12.10;99.90;;;;;;5052820;28;20040;-65
2023/05/13 02:28:39;;;;;;;14.93;8.88;;;12.10;99.90;;;;;;5052505;28;20043;-64
2023/05/13 02:31:05;;;;;;;14.02;7.95;;;12.00;99.90;;;;;;5052236;28;20095;-63
2023/05/13 02:33:31;;;;;;;12.73;8.48;;;12.00;99.90;;;;;;5051961;28;20365;-62
2023/05/13 02:35:56;;;;;;;14.68;9.68;;;12.00;99.90;;;;;;5051734;28;20044;-61
2023/05/13 02:38:22;;;;;;;13.75;9.13;;;11.90;99.90;;;;;;5051706;28;20037;-63
2023/05/13 02:40:48;;;;;;;12.68;9.07;;;11.90;99.90;;;;;;5051757;28;20151;-59
2023/05/13 02:43:13;;;;;;;13.40;9.13;;;11.80;99.90;;;;;;5051935;28;20392;-63
2023/05/13 02:45:40;;;;;;;11.25;8.52;;;11.80;99.90;;;;;;5051917;28;20040;-61
2023/05/13 02:48:06;;;;;;;12.23;9.00;;;11.80;99.90;;;;;;5051334;28;20044;-62
2023/05/13 02:50:32;;;;;;;11.18;9.15;;;11.80;99.90;;;;;;5051126;28;20132;-62
2023/05/13 02:52:57;;;;;;;13.68;8.95;;;11.80;99.90;;;;;;5051295;28;20040;-60
2023/05/13 02:55:23;;;;;;;15.05;8.85;;;11.70;99.90;;;;;;5051500;28;20037;-62
2023/05/13 02:57:49;;;;;;;13.80;9.82;;;11.70;99.90;;;;;;5051673;28;20154;-60
2023/05/13 03:00:15;;;;;;;13.80;8.75;;;11.70;99.90;;;;;;5051462;28;20384;-62
2023/05/13 03:02:40;;;;;;;14.85;8.90;;;11.80;99.90;;;;;;5051385;28;20080;-62
2023/05/13 03:05:07;;;;;;;11.70;8.02;;;11.70;99.90;;;;;;5051334;28;20040;-59
2023/05/13 03:07:32;;;;;;;14.13;8.93;;;11.70;99.90;;;;;;5051271;28;20044;-61
2023/05/13 03:09:58;;;;;;;14.15;8.40;;;11.70;99.90;;;;;;5051754;28;20037;-60
2023/05/13 03:12:24;;;;;;;12.18;8.60;;;11.70;99.90;;;;;;5051872;28;20044;-60
2023/05/13 03:14:50;;;;;;;10.82;8.57;;;11.70;99.90;;;;;;5035403;28;20047;-63
2023/05/13 03:17:16;;;;;;;16.45;9.23;;;11.70;99.90;;;;;;5050628;28;20084;-61
2023/05/13 03:19:41;;;;;;;14.93;9.30;;;11.60;99.90;;;;;;5050727;28;20040;-60
2023/05/13 03:22:07;;;;;;;12.63;9.05;;;11.60;99.90;;;;;;5052075;28;20064;-66
2023/05/13 03:24:33;;;;;;;16.08;10.10;;;11.60;99.90;;;;;;5051365;28;20087;-62
2023/05/13 03:26:59;;;;;;;15.77;9.65;;;11.60;99.90;;;;;;5050781;28;20048;-64
2023/05/13 03:29:24;;;;;;;12.98;9.57;;;11.50;99.90;;;;;;5050802;28;20037;-63
2023/05/13 03:31:52;;;;;;;17.00;10.00;;;11.50;99.90;;;;;;5051098;28;20041;-60
2023/05/13 03:34:18;;;;;;;14.85;9.55;;;11.50;99.90;;;;;;5050058;28;20392;-60
2023/05/13 03:36:43;;;;;;;15.13;9.48;;;11.40;99.90;;;;;;5049862;28;20048;-61
2023/05/13 03:39:09;;;;;;;17.25;11.07;;;11.40;99.90;;;;;;5051201;28;20083;-63
2023/05/13 03:41:35;;;;;;;16.73;10.65;;;11.40;99.90;;;;;;5032442;28;20499;-62
2023/05/13 03:44:01;;;;;;;18.65;10.60;;;11.30;99.90;;;;;;5050818;28;20025;-61
2023/05/13 03:46:27;;;;;;;20.85;12.25;;;11.30;99.90;;;;;;5050459;28;20048;-62
2023/05/13 03:48:54;;;;;;;18.58;12.05;;;11.20;99.90;;;;;;5048928;28;20041;-62
2023/05/13 03:51:21;;;;;;;18.10;12.40;;;11.20;99.90;;;;;;5050591;28;20029;-62
2023/05/13 03:53:48;;;;;;;15.93;11.02;;;;;;;;;;5057536;28;20064;-65
2023/05/13 03:56:14;;;;;;;21.25;12.40;;;11.10;99.90;;;;;;5050234;28;20037;-63
2023/05/13 03:58:40;;;;;;;20.00;12.48;;;11.10;99.90;;;;;;5050549;28;20366;-62
2023/05/13 04:01:06;;;;;;;18.33;12.57;;;11.00;99.90;;;;;;5050299;28;20083;-62
2023/05/13 04:03:33;;;;;;;16.35;12.02;;;11.00;99.90;;;;;;5032373;28;20041;-62
2023/05/13 04:05:59;;;;;;;15.93;13.00;;;11.00;99.90;;;;;;5050541;28;20045;-62
2023/05/13 04:08:24;;;;;;;15.85;12.35;;;11.00;99.90;;;;;;5050168;28;20048;-62
2023/05/13 04:10:50;;;;;;;16.70;12.93;;;11.00;99.90;;;;;;5049005;28;20511;-63
2023/05/13 04:13:16;;;;;;;17.95;12.60;;;11.00;99.90;;;;;;5050146;28;20475;-60
2023/05/13 04:15:42;;;;;;;17.35;12.77;;;11.00;99.90;;;;;;5050174;28;20423;-60
2023/05/13 04:18:07;;;;;;;19.75;13.25;;;11.00;99.90;;;;;;5049920;28;20556;-62
2023/05/13 04:20:33;;;;;;;18.88;13.43;;;11.00;99.90;;;;;;5060634;28;20511;-61
2023/05/13 04:23:00;;;;;;;23.95;14.60;;;11.00;99.90;;;;;;5049950;28;20049;-62
2023/05/13 04:25:26;;;;;;;17.83;12.68;;;11.00;99.90;;;;;;5048724;28;20118;-60
2023/05/13 04:27:51;;;;;;;21.80;12.63;;;11.00;99.90;;;;;;5049578;28;20036;-62
2023/05/13 04:30:17;;;;;;;20.70;13.02;;;11.00;99.90;;;;;;5050526;28;20033;-64
2023/05/13 04:32:43;;;;;;;17.70;12.95;;;11.00;99.90;;;;;;5032424;28;20033;-61
2023/05/13 04:35:09;;;;;;;21.85;13.38;;;11.10;99.90;;;;;;5050003;28;20484;-62
2023/05/13 04:37:34;;;;;;;22.17;12.85;;;11.10;99.90;;;;;;5049968;28;20040;-62
2023/05/13 04:40:00;;;;;;;23.73;13.55;;;11.10;99.90;;;;;;5049698;28;20195;-60
2023/05/13 04:42:26;;;;;;;19.83;13.23;;;11.10;99.90;;;;;;5049479;28;20037;-65
2023/05/13 04:44:51;;;;;;;20.90;13.48;;;11.10;99.90;;;;;;5049771;28;20041;-60
2023/05/13 04:47:18;;;;;;;20.00;13.77;;;11.20;99.90;;;;;;5049601;28;20404;-61
2023/05/13 04:49:43;;;;;;;21.00;14.25;;;11.20;99.90;;;;;;5049363;28;20045;-62
2023/05/13 04:52:11;;;;;;;21.38;13.48;;;11.20;99.90;;;;;;5049235;28;20043;-62
2023/05/13 04:54:38;;;;;;;20.75;15.10;;;11.20;99.90;;;;;;5049440;28;20112;-64
2023/05/13 04:57:04;;;;;;;19.23;13.55;;;11.30;99.90;;;;;;5049923;28;20095;-63
2023/05/13 04:59:30;;;;;;;17.85;13.52;;;11.30;99.90;;;;;;5049272;28;20044;-61
2023/05/13 05:01:56;;;;;;;31.63;14.20;;;11.30;99.90;;;;;;5049787;28;20029;-61
2023/05/13 05:04:23;;;;;;;20.38;14.35;;;11.30;99.90;;;;;;5049759;28;20415;-62
2023/05/13 05:06:49;;;;;;;23.65;14.75;;;11.40;99.90;;;;;;5068175;28;20135;-61
2023/05/13 05:09:14;;;;;;;24.42;15.02;;;11.40;99.90;;;;;;5048699;28;20131;-62
2023/05/13 05:11:40;;;;;;;19.90;14.30;;;11.40;99.90;;;;;;5049325;28;20037;-60
2023/05/13 05:14:06;;;;;;;20.17;14.65;;;11.50;99.90;;;;;;5031510;28;20045;-62
2023/05/13 05:16:31;;;;;;;22.35;13.68;;;11.50;99.90;;;;;;5049268;28;20045;-61
2023/05/13 05:18:58;;;;;;;22.17;15.27;;;11.50;99.90;;;;;;5049462;28;20058;-60
2023/05/13 05:21:23;;;;;;;19.35;14.10;;;11.60;99.90;;;;;;5051240;28;20057;-63
2023/05/13 05:23:49;;;;;;;19.05;14.35;;;11.60;99.90;;;;;;5069476;28;20036;-61
2023/05/13 05:26:15;;;;;;;20.35;13.93;;;11.70;99.90;;;;;;5069064;28;20068;-61
2023/05/13 05:28:41;;;;;;;18.73;15.13;;;11.70;99.90;;;;;;5069144;28;20075;-59
2023/05/13 05:31:08;;;;;;;19.02;13.38;;;11.70;99.90;;;;;;5068988;28;20082;-61
2023/05/13 05:33:35;;;;;;;19.58;13.90;;;11.80;99.90;;;;;;5069318;28;20484;-60
2023/05/13 05:36:01;;;;;;;19.42;13.90;;;11.90;99.90;;;;;;5069615;28;20049;-63
2023/05/13 05:38:26;;;;;;;19.10;14.23;;;11.90;99.90;;;;;;5051330;28;20396;-60
2023/05/13 05:40:53;;;;;;;19.05;13.35;;;11.90;99.90;;;;;;5072732;28;20032;-64
2023/05/13 05:43:18;;;;;;;18.27;13.57;;;12.00;99.90;;;;;;5072157;28;20365;-61
2023/05/13 05:45:45;;;;;;;18.45;12.93;;;12.10;99.90;;;;;;5054564;28;20032;-62
2023/05/13 05:48:10;;;;;;;21.10;14.38;;;12.10;99.90;;;;;;5072893;28;20484;-60
2023/05/13 05:50:36;;;;;;;21.15;13.95;;;12.20;99.90;;;;;;5072578;28;20127;-61
2023/05/13 05:53:02;;;;;;;18.02;12.55;;;12.30;99.90;;;;;;5072652;28;20091;-63
2023/05/13 05:55:30;;;;;;;18.63;12.20;;;12.30;99.90;;;;;;5072695;28;20470;-61
2023/05/13 05:57:56;;;;;;;14.60;11.60;;;12.40;99.90;;;;;;5071976;28;20080;-63
2023/05/13 06:00:23;;;;;;;19.60;11.68;;;12.40;99.90;;;;;;5072516;28;20037;-63
2023/05/13 06:02:49;;;;;;;17.63;11.20;;;12.50;99.90;;;;;;5072221;28;20072;-67
2023/05/13 06:05:14;;;;;;;15.80;12.00;;;12.50;99.90;;;;;;5070398;28;20028;-61
2023/05/13 06:07:40;;;;;;;18.17;11.73;;;12.60;99.90;;;;;;5072185;28;20049;-59
2023/05/13 06:10:06;;;;;;;19.88;12.85;;;12.70;99.90;;;;;;5071294;28;20036;-60
2023/05/13 06:12:33;;;;;;;15.70;11.82;;;12.70;99.90;;;;;;5058957;28;20037;-63
2023/05/13 06:15:00;;;;;;;15.45;11.52;;;12.70;99.90;;;;;;5061057;28;20048;-61
2023/05/13 06:17:25;;;;;;;19.00;11.55;;;12.80;99.90;;;;;;5060762;28;20040;-65
2023/05/13 06:19:51;;;;;;;18.13;11.52;;;12.90;99.90;;;;;;5059752;28;20029;-60
2023/05/13 06:22:17;;;;;;;16.77;11.55;;;12.90;99.90;;;;;;5061729;28;20047;-62
2023/05/13 06:24:43;;;;;;;17.20;11.80;;;13.00;99.90;;;;;;5059499;28;20657;-64
2023/05/13 06:27:12;;;;;;;16.55;11.13;;;13.00;99.90;;;;;;5062526;28;20028;-59
2023/05/13 06:29:37;;;;;;;18.52;12.20;;;13.10;99.90;;;;;;5059427;28;20041;-62
2023/05/13 06:32:03;;;;;;;15.68;10.93;;;13.10;99.90;;;;;;5059740;28;20029;-63
2023/05/13 06:34:29;;;;;;;17.15;11.52;;;13.20;99.90;;;;;;5059497;28;20277;-61
2023/05/13 06:36:55;;;;;;;14.38;11.02;;;13.30;99.90;;;;;;5064247;28;20044;-60
2023/05/13 06:39:21;;;;;;;16.13;10.77;;;13.40;99.90;;;;;;5044354;28;20048;-61
2023/05/13 06:41:46;;;;;;;16.80;11.50;;;13.40;99.90;;;;;;5060788;28;20029;-60
2023/05/13 06:44:12;;;;;;;16.65;11.07;;;13.50;99.90;;;;;;5059891;28;20028;-61
2023/05/13 06:46:38;;;;;;;17.00;11.13;;;13.50;99.90;;;;;;5060473;28;20036;-61
2023/05/13 06:49:03;;;;;;;15.38;10.93;;;13.60;99.90;;;;;;5062375;28;20035;-60
2023/05/13 06:51:31;;;;;;;15.88;10.77;;;13.70;99.90;;;;;;5060713;28;20111;-65
2023/05/13 06:53:57;;;;;;;15.43;10.77;;;13.80;99.90;;;;;;5063603;28;20048;-64
2023/05/13 06:56:23;;;;;;;16.17;11.70;;;13.90;99.90;;;;;;5061527;28;20055;-65
2023/05/13 06:58:49;;;;;;;13.57;10.45;;;13.90;99.90;;;;;;5061725;28;20059;-62
2023/05/13 07:01:18;;;;;;;15.07;9.63;;;14.00;99.90;;;;;;5058952;28;20036;-62
2023/05/13 07:03:44;;;;;;;14.98;9.60;;;14.10;99.90;;;;;;5060650;28;20032;-60
2023/05/13 07:06:11;;;;;;;14.27;9.93;;;14.20;99.90;;;;;;5063808;28;20038;-64
2023/05/13 07:08:37;;;;;;;13.35;9.73;;;14.30;99.90;;;;;;5060351;28;20044;-65
2023/05/13 07:11:03;;;;;;;13.43;9.77;;;14.30;99.90;;;;;;5043737;28;20064;-60
2023/05/13 07:13:32;;;;;;;16.05;9.77;;;14.40;99.90;;;;;;5058742;28;20135;-61
2023/05/13 07:15:58;;;;;;;12.73;9.80;;;14.50;99.90;;;;;;5060646;28;20098;-61
2023/05/13 07:18:23;;;;;;;13.95;9.77;;;14.50;99.90;;;;;;5075786;28;20036;-62
2023/05/13 07:20:49;;;;;;;11.73;9.68;;;14.60;99.90;;;;;;5060320;28;20045;-64
2023/05/13 07:23:15;;;;;;;14.02;10.20;;;14.70;99.90;;;;;;5044292;28;20064;-63
2023/05/13 07:25:40;;;;;;;13.43;9.10;;;14.70;99.90;;;;;;5061131;28;20036;-63
2023/05/13 07:28:06;;;;;;;13.80;8.55;;;14.80;99.90;;;;;;5061814;28;20040;-61
2023/05/13 07:30:32;;;;;;;14.15;9.38;;;14.90;99.90;;;;;;5059235;28;20175;-65
2023/05/13 07:32:58;;;;;;;14.23;8.90;;;15.00;99.90;;;;;;5061107;28;20127;-61
2023/05/13 07:35:24;;;;;;;11.18;8.95;;;15.10;99.90;;;;;;5043818;28;20043;-59
2023/05/13 07:37:49;;;;;;;14.30;9.40;;;15.10;99.90;;;;;;5061733;28;20072;-61
2023/05/13 07:40:16;;;;;;;10.60;8.82;;;15.20;99.90;;;;;;5040839;28;20035;-62
2023/05/13 07:42:42;;;;;;;11.88;8.00;;;15.30;99.90;;;;;;5057109;28;20507;-62
2023/05/13 07:45:08;;;;;;;10.38;8.35;;;15.40;99.90;;;;;;5056397;28;20078;-62
2023/05/13 07:47:34;;;;;;;12.02;8.50;;;15.40;99.90;;;;;;5057674;28;20029;-60
2023/05/13 07:49:59;;;;;;;13.95;7.78;;;15.50;99.90;;;;;;5058100;28;20035;-62
2023/05/13 07:52:25;;;;;;;11.30;7.55;;;15.60;99.90;;;;;;5059241;28;20471;-63
2023/05/13 07:54:51;;;;;;;10.63;7.00;;;15.60;99.90;;;;;;5059786;28;20033;-63
2023/05/13 07:57:17;;;;;;;11.10;7.40;;;15.70;99.90;;;;;;5042517;28;21146;-63
2023/05/13 07:59:43;;;;;;;9.52;6.65;;;15.70;99.90;;;;;;5061637;28;20947;-62
2023/05/13 08:02:10;;;;;;;12.77;6.80;;;15.80;99.90;;;;;;5061277;28;20066;-62
2023/05/13 08:04:35;;;;;;;10.07;7.03;;;15.80;99.90;;;;;;5060372;28;20083;-63
2023/05/13 08:07:01;;;;;;;9.77;7.13;;;15.90;99.90;;;;;;5058962;28;20428;-60
2023/05/13 08:09:27;;;;;;;9.95;7.82;;;16.00;99.90;;;;;;5060542;28;20364;-62
2023/05/13 08:11:53;;;;;;;10.90;7.68;;;16.10;99.90;;;;;;5043963;28;20123;-63
2023/05/13 08:14:19;;;;;;;12.15;7.60;;;16.20;99.90;;;;;;5062092;28;20345;-60
2023/05/13 08:16:45;;;;;;;12.05;7.30;;;16.30;99.90;;;;;;5060087;28;20106;-62
2023/05/13 08:19:11;;;;;;;8.88;6.53;;;16.40;99.90;;;;;;5059168;28;20484;-61
2023/05/13 08:21:37;;;;;;;11.45;7.22;;;16.40;99.90;;;;;;5042564;28;20049;-62
2023/05/13 08:24:03;;;;;;;9.88;7.05;;;16.50;99.90;;;;;;5060601;28;20040;-62
2023/05/13 08:26:28;;;;;;;10.75;6.88;;;16.60;99.90;;;;;;5042237;28;20063;-62
2023/05/13 08:28:56;;;;;;;8.55;6.38;;;16.70;99.90;;;;;;5060513;28;20157;-62
2023/05/13 08:31:23;;;;;;;11.13;6.30;;;16.70;99.90;;;;;;5060525;28;20052;-61
2023/05/13 08:33:50;;;;;;;9.18;5.75;;;16.80;99.90;;;;;;5058371;28;20423;-60
2023/05/13 08:36:17;;;;;;;9.00;5.85;;;16.90;99.90;;;;;;5060197;28;20167;-61
2023/05/13 08:38:42;;;;;;;10.77;5.75;;;17.00;99.90;;;;;;5060031;28;20043;-63
2023/05/13 08:41:12;;;;;;;8.95;5.60;;;17.10;99.90;;;;;;5042374;28;20037;-63
2023/05/13 08:43:39;;;;;;;10.05;5.53;;;17.30;99.90;;;;;;5061303;28;20044;-62
2023/05/13 08:46:08;;;;;;;9.73;5.30;;;17.30;99.90;;;;;;5041077;28;20052;-63
2023/05/13 08:48:35;;;;;;;9.60;5.63;;;17.50;99.90;;;;;;5058872;28;20033;-59
2023/05/13 08:51:01;;;;;;;9.35;5.65;;;17.60;99.90;;;;;;5042494;28;20031;-65
2023/05/13 08:53:28;;;;;;;9.70;5.88;;;17.70;99.90;;;;;;5059796;28;20476;-62
2023/05/13 08:55:54;;;;;;;9.52;5.40;;;17.70;99.90;;;;;;5060011;28;20486;-64
2023/05/13 08:58:19;;;;;;;10.60;5.95;;;17.80;99.90;;;;;;5059987;28;20136;-63
2023/05/13 09:00:47;;;;;;;8.85;5.30;;;17.90;99.90;;;;;;5060820;28;20392;-62
2023/05/13 09:03:14;;;;;;;11.65;5.75;;;18.00;99.90;;;;;;5043142;28;20032;-62
2023/05/13 09:05:44;;;;;;;11.68;6.22;;;18.20;99.90;;;;;;5059037;28;20040;-62
2023/05/13 09:08:10;;;;;;;8.95;5.38;;;18.30;99.90;;;;;;5041763;28;20918;-62
2023/05/13 09:10:36;;;;;;;9.73;5.70;;;18.50;99.90;;;;;;5059420;28;20060;-61
2023/05/13 09:13:03;;;;;;;9.27;5.80;;;18.70;99.90;;;;;;5060367;28;20128;-62
2023/05/13 09:15:30;;;;;;;11.98;5.68;;;18.80;99.90;;;;;;5063565;28;20483;-64
2023/05/13 09:18:03;;;;;;;8.93;5.03;;;19.00;99.90;;;;;;5063292;28;20048;-59
2023/05/13 09:20:29;;;;;;;8.93;4.78;;;19.10;99.90;;;;;;5062180;28;20102;-63
2023/05/13 09:22:57;;;;;;;10.98;5.43;;;19.30;99.90;;;;;;5064424;28;20044;-62
2023/05/13 09:25:24;;;;;;;9.05;4.55;;;19.40;99.90;;;;;;5064857;28;20032;-64
2023/05/13 09:27:56;;;;;;;7.15;4.68;;;19.60;99.90;;;;;;5065623;28;20107;-63
2023/05/13 09:30:23;;;;;;;8.25;4.88;;;19.70;99.90;;;;;;5062931;28;20076;-61
2023/05/13 09:33:10;;;;;;;6.65;4.13;;;19.80;99.90;;;;;;5063416;28;20681;-60
2023/05/13 09:35:44;;;;;;;6.15;4.05;;;20.00;99.90;;;;;;5064969;28;20041;-62
2023/05/13 09:38:27;;;;;;;10.88;4.07;;;20.10;99.90;;;;;;5064008;28;20071;-60
2023/05/13 09:40:58;;;;;;;6.88;4.18;;;20.30;99.90;;;;;;5063491;28;20447;-62
2023/05/13 09:43:31;;;;;;;8.20;3.40;;;20.30;99.90;;;;;;5063472;28;20426;-62
2023/05/13 09:46:07;;;;;;;7.00;3.97;;;20.30;99.90;;;;;;5065336;28;20041;-62
2023/05/13 09:48:33;;;;;;;9.55;3.50;;;20.40;99.90;;;;;;5064567;28;20059;-59
2023/05/13 09:50:59;;;;;;;6.75;3.67;;;20.40;99.90;;;;;;5062845;28;20043;-62
2023/05/13 09:53:26;;;;;;;8.30;3.25;;;20.50;99.90;;;;;;5061377;28;20036;-64
2023/05/13 09:55:53;;;;;;;10.07;3.05;;;20.60;99.90;;;;;;5063683;28;20503;-60
2023/05/13 09:58:20;;;;;;;9.82;3.28;;;20.60;99.90;;;;;;5064039;28;20048;-61
2023/05/13 10:00:47;;;;;;;10.00;3.30;;;20.70;99.90;;;;;;5063783;28;20047;-61
2023/05/13 10:03:13;;;;;;;7.43;3.20;;;20.70;99.90;;;;;;5063178;28;20992;-61
2023/05/13 10:05:40;;;;;;;7.05;2.97;;;20.70;99.90;;;;;;5062630;28;20037;-61
2023/05/13 10:08:14;;;;;;;5.80;2.75;;;20.80;99.90;;;;;;5046512;28;20036;-62
2023/05/13 10:10:41;;;;;;;8.30;3.03;;;20.80;99.90;;;;;;5066057;28;20052;-63
2023/05/13 10:13:12;;;;;;;5.75;3.05;;;20.90;99.90;;;;;;5062731;28;20048;-60
2023/05/13 10:15:49;;;;;;;7.90;2.72;;;20.70;99.90;;;;;;5061640;28;20040;-61
2023/05/13 10:18:16;;;;;;;7.35;2.95;;;21.10;99.90;;;;;;5062570;28;20502;-60
2023/05/13 10:20:42;;;;;;;7.90;3.58;;;21.10;99.90;;;;;;5062612;28;20087;-60
2023/05/13 10:23:09;;;;;;;6.88;2.75;;;21.20;99.90;;;;;;5045890;28;20028;-61
2023/05/13 10:25:36;;;;;;;5.93;2.67;;;21.30;99.90;;;;;;5060271;28;20082;-59
2023/05/13 10:28:05;;;;;;;7.75;2.80;;;21.40;99.90;;;;;;5063063;28;20139;-58
2023/05/13 10:30:32;;;;;;;4.38;2.65;;;21.60;99.90;;;;;;5061812;28;20041;-61
2023/05/13 10:32:58;;;;;;;9.48;3.33;;;21.60;99.90;;;;;;5062187;28;20049;-60
2023/05/13 10:35:30;;;;;;;7.00;2.75;;;21.70;99.90;;;;;;5062649;28;20032;-59
2023/05/13 10:38:07;;;;;;;7.07;2.88;;;21.70;99.40;;;;;;5063859;28;20156;-62
2023/05/13 10:40:51;;;;;;;5.60;3.13;;;21.80;99.40;;;;;;5062944;28;20068;-61
2023/05/13 10:43:21;;;;;;;5.72;3.10;;;21.90;99.30;;;;;;5062460;28;20032;-60
2023/05/13 10:45:56;;;;;;;8.05;2.92;;;22.00;99.00;;;;;;5062339;28;20058;-60
2023/05/13 10:48:22;;;;;;;5.85;3.33;;;22.10;99.70;;;;;;5062017;28;20116;-60
2023/05/13 10:50:56;;;;;;;6.82;2.67;;;22.20;99.80;;;;;;5061796;28;20127;-61
2023/05/13 10:53:24;;;;;;;5.22;2.60;;;22.30;98.80;;;;;;5062237;28;20040;-60
2023/05/13 10:55:59;;;;;;;8.02;2.80;;;22.30;98.20;;;;;;5061777;28;20045;-62
2023/05/13 10:58:29;;;;;;;6.38;2.70;;;22.30;97.60;;;;;;5060892;28;20040;-60
2023/05/13 11:01:13;;;;;;;7.70;2.80;;;22.50;98.50;;;;;;5060981;28;20480;-59
2023/05/13 11:03:39;;;;;;;5.88;2.80;;;22.60;98.30;;;;;;5061000;28;20538;-61
2023/05/13 11:06:18;;;;;;;6.05;2.35;;;22.60;98.10;;;;;;5061679;28;20047;-62
2023/05/13 11:08:48;;;;;;;6.60;2.90;;;22.70;97.90;;;;;;5061747;28;20068;-59
2023/05/13 11:11:24;;;;;;;7.75;2.83;;;22.80;98.30;;;;;;5061977;28;20036;-61
2023/05/13 11:14:09;;;;;;;7.97;3.10;;;22.80;97.10;;;;;;5060550;28;21675;-63
2023/05/13 11:16:36;;;;;;;5.10;2.47;;;22.70;97.70;;;;;;5060965;28;20068;-59
2023/05/13 11:19:03;;;;;;;6.93;2.75;;;22.50;96.70;;;;;;5061320;28;20040;-60
2023/05/13 11:21:31;;;;;;;9.35;2.60;;;22.50;96.60;;;;;;5060139;28;20105;-61
2023/05/13 11:24:06;;;;;;;5.75;2.53;;;22.70;96.30;;;;;;5061797;28;20060;-59
2023/05/13 11:26:46;;;;;;;6.97;2.60;;;22.80;96.40;;;;;;5058573;28;20033;-64
2023/05/13 11:29:13;;;;;;;6.28;2.63;;;22.60;96.30;;;;;;5043379;28;20094;-60
2023/05/13 11:31:51;;;;;;;5.15;2.53;;;22.50;96.30;;;;;;5063592;28;20128;-60
2023/05/13 11:34:19;;;;;;;4.85;2.58;;;22.70;95.70;;;;;;5044037;28;20034;-62
2023/05/13 11:36:49;;;;;;;7.88;2.30;;;22.60;95.20;;;;;;5061594;28;20037;-62
2023/05/13 11:39:20;;;;;;;5.93;2.50;;;22.50;94.70;;;;;;5062263;28;20063;-63
2023/05/13 11:41:49;;;;;;;5.47;2.45;;;22.60;94.90;;;;;;5061687;28;20028;-60
2023/05/13 11:44:18;;;;;;;4.45;2.30;;;22.70;94.90;;;;;;5062244;28;20047;-61
2023/05/13 11:46:58;;;;;;;5.65;2.30;;;22.80;94.00;;;;;;5062460;28;20033;-63
2023/05/13 11:49:39;;;;;;;6.05;2.88;;;23.00;93.20;;;;;;5062064;28;20082;-61
2023/05/13 11:52:11;;;;;;;7.38;2.50;;;23.10;93.40;;;;;;5062733;28;20099;-61
2023/05/13 11:54:42;;;;;;;6.47;2.17;;;23.30;93.00;;;;;;5061862;28;20067;-64
2023/05/13 11:57:17;;;;;;;11.13;2.20;;;23.40;92.90;;;;;;5062145;28;20514;-62
2023/05/13 12:00:05;;;;;;;6.25;2.13;;;23.60;91.80;;;;;;5063197;28;20116;-61
2023/05/13 12:02:36;;;;;;;9.88;2.40;;;23.80;91.90;;;;;;5063702;28;20032;-64
2023/05/13 12:05:04;;;;;;;7.18;2.28;;;24.00;91.80;;;;;;5062067;28;20028;-61
2023/05/13 12:07:30;;;;;;;8.07;2.35;;;24.10;91.10;;;;;;5062187;28;20075;-60
2023/05/13 12:09:58;;;;;;;5.95;1.83;;;24.20;90.90;;;;;;5063045;28;20028;-64
2023/05/13 12:12:28;;;;;;;7.78;1.98;;;24.30;91.70;;;;;;5062358;28;20033;-61
2023/05/13 12:15:02;;;;;;;6.18;2.20;;;24.40;91.10;;;;;;5061476;28;20111;-61
2023/05/13 12:17:30;;;;;;;4.95;2.13;;;24.70;91.30;;;;;;5061810;28;20131;-61
2023/05/13 12:20:18;;;;;;;6.45;2.50;;;24.80;90.50;;;;;;5061972;28;20083;-61
2023/05/13 12:22:43;;;;;;;5.78;2.13;;;24.80;89.70;;;;;;5060619;28;20063;-62
2023/05/13 12:25:31;;;;;;;5.55;2.20;;;24.90;90.40;;;;;;5062203;28;20460;-63
2023/05/13 12:27:57;;;;;;;5.43;1.98;;;25.10;90.60;;;;;;5045043;28;20060;-64
2023/05/13 12:30:23;;;;;;;6.18;2.15;;;25.30;90.10;;;;;;5043590;28;20047;-62
2023/05/13 12:32:48;;;;;;;4.57;1.90;;;25.40;88.40;;;;;;5043487;28;20439;-62
2023/05/13 12:35:14;;;;;;;7.85;2.13;;;25.40;87.20;;;;;;5060697;28;20040;-62
2023/05/13 12:37:40;;;;;;;5.10;2.30;;;25.30;86.10;;;;;;5060659;28;20040;-63
2023/05/13 12:40:13;;;;;;;5.03;1.90;;;25.30;86.10;;;;;;5061299;28;20490;-61